Time;durP1;ratioP1;P1;durP2;ratioP2;P2;SDS_P1;SDS_P2;PMS_P1;PMS_P2;Temp;Humidity;BMP_temperature;BMP_pressure;BME280_temperature;BME280_humidity;BME280_pressure;Samples;Min_cycle;Max_cycle;Signal;HPM_P1;HPM_P2
2021/09/03 00:00:43;;;;;;;10.57;6.60;;;16.70;76.80;;;;;;5065022;28;20029;-76
2021/09/03 00:03:09;;;;;;;10.63;7.30;;;16.70;76.80;;;;;;5064873;28;20026;-76
2021/09/03 00:05:35;;;;;;;9.43;6.95;;;16.70;77.00;;;;;;5064962;28;20109;-76
2021/09/03 00:08:01;;;;;;;11.57;7.32;;;16.60;77.00;;;;;;5065144;28;20079;-76
2021/09/03 00:10:27;;;;;;;10.35;6.75;;;16.60;77.00;;;;;;5064886;28;20030;-76
2021/09/03 00:12:53;;;;;;;12.35;6.93;;;16.60;77.00;;;;;;5065361;28;20029;-76
2021/09/03 00:15:18;;;;;;;10.38;6.80;;;16.60;77.20;;;;;;5064803;28;20055;-76
2021/09/03 00:17:45;;;;;;;11.57;7.88;;;16.60;77.20;;;;;;5064983;28;20018;-76
2021/09/03 00:20:13;;;;;;;9.75;6.80;;;16.50;77.90;;;;;;5064762;28;20079;-76
2021/09/03 00:22:38;;;;;;;10.73;6.75;;;16.50;77.40;;;;;;5064843;28;20030;-76
2021/09/03 00:25:07;;;;;;;10.98;7.07;;;16.50;77.50;;;;;;5064869;28;20478;-76
2021/09/03 00:27:33;;;;;;;7.75;6.07;;;16.50;77.50;;;;;;5064709;28;20071;-76
2021/09/03 00:29:58;;;;;;;10.20;6.80;;;16.50;77.50;;;;;;5031489;28;20018;-76
2021/09/03 00:32:24;;;;;;;10.25;6.82;;;16.50;77.50;;;;;;5064523;28;20121;-76
2021/09/03 00:34:49;;;;;;;9.82;6.82;;;16.50;77.50;;;;;;5064727;28;20025;-76
2021/09/03 00:37:15;;;;;;;9.02;6.97;;;16.50;77.60;;;;;;5064652;28;20083;-76
2021/09/03 00:39:41;;;;;;;8.95;6.65;;;16.50;77.60;;;;;;5064575;28;20083;-76
2021/09/03 00:42:14;;;;;;;12.15;7.47;;;16.40;78.30;;;;;;5066999;28;20021;-76
2021/09/03 00:44:41;;;;;;;13.93;7.45;;;16.40;77.80;;;;;;5071235;28;20017;-76
2021/09/03 00:47:06;;;;;;;11.77;7.30;;;16.40;77.90;;;;;;5071429;28;20029;-76
2021/09/03 00:49:33;;;;;;;10.90;7.13;;;16.30;77.90;;;;;;5071254;28;20021;-76
2021/09/03 00:52:01;;;;;;;11.05;7.70;;;16.30;78.00;;;;;;5071185;28;20112;-76
2021/09/03 00:54:27;;;;;;;11.23;7.90;;;16.30;78.10;;;;;;5039225;28;20393;-76
2021/09/03 00:56:52;;;;;;;11.65;7.18;;;16.20;78.10;;;;;;5068384;28;20033;-75
2021/09/03 00:59:18;;;;;;;15.32;8.35;;;16.20;78.20;;;;;;5039165;28;20359;-77
2021/09/03 01:01:44;;;;;;;11.75;7.82;;;16.20;78.20;;;;;;5071292;28;20512;-76
2021/09/03 01:04:10;;;;;;;12.70;8.27;;;16.10;78.30;;;;;;5071145;28;20022;-76
2021/09/03 01:06:35;;;;;;;10.55;7.63;;;16.10;78.40;;;;;;5039110;28;20151;-77
2021/09/03 01:09:01;;;;;;;12.23;7.68;;;16.10;78.40;;;;;;5071221;28;20025;-76
2021/09/03 01:11:26;;;;;;;11.18;7.60;;;16.10;78.50;;;;;;5071047;28;20047;-77
2021/09/03 01:13:52;;;;;;;10.65;7.82;;;16.10;78.50;;;;;;5071221;28;20135;-76
2021/09/03 01:16:18;;;;;;;11.70;7.55;;;16.10;78.60;;;;;;5071006;28;20025;-76
2021/09/03 01:18:43;;;;;;;11.27;7.40;;;16.00;78.60;;;;;;5068100;28;20034;-77
2021/09/03 01:21:09;;;;;;;10.30;8.07;;;16.00;78.60;;;;;;5071090;28;20053;-76
2021/09/03 01:23:35;;;;;;;12.07;8.90;;;16.00;78.70;;;;;;5067970;28;20041;-76
2021/09/03 01:26:02;;;;;;;10.82;8.15;;;16.00;78.70;;;;;;5071084;28;20025;-77
2021/09/03 01:28:28;;;;;;;12.43;8.20;;;16.00;78.80;;;;;;5071081;28;20021;-76
2021/09/03 01:30:54;;;;;;;12.38;8.07;;;16.00;78.80;;;;;;5037620;28;20025;-77
2021/09/03 01:33:19;;;;;;;13.63;7.57;;;16.00;78.90;;;;;;5070829;28;20061;-77
2021/09/03 01:35:45;;;;;;;12.10;7.70;;;16.00;78.90;;;;;;5070831;28;20029;-76
2021/09/03 01:38:10;;;;;;;9.88;7.72;;;16.00;79.00;;;;;;5070961;28;20104;-77
2021/09/03 01:40:37;;;;;;;11.23;7.50;;;15.90;78.90;;;;;;5054053;28;20111;-76
2021/09/03 01:43:03;;;;;;;12.15;7.13;;;16.00;79.00;;;;;;5070908;28;20018;-75
2021/09/03 01:45:29;;;;;;;11.48;6.97;;;16.00;79.00;;;;;;5070822;28;20032;-76
2021/09/03 01:47:54;;;;;;;11.18;7.60;;;16.00;79.00;;;;;;5038891;28;20033;-76
2021/09/03 01:50:20;;;;;;;12.80;7.82;;;15.90;79.00;;;;;;5038696;28;20079;-76
2021/09/03 01:52:46;;;;;;;12.68;8.40;;;15.90;79.60;;;;;;5070693;28;20025;-77
2021/09/03 01:55:11;;;;;;;12.02;8.20;;;15.90;79.00;;;;;;5066370;28;20049;-77
2021/09/03 01:57:40;;;;;;;11.07;7.60;;;15.90;79.10;;;;;;5067717;28;20028;-76
2021/09/03 02:00:06;;;;;;;12.20;7.68;;;15.90;79.10;;;;;;5067504;28;20397;-76
2021/09/03 02:02:32;;;;;;;12.95;8.27;;;15.90;79.10;;;;;;5067632;28;20025;-76
2021/09/03 02:04:57;;;;;;;11.20;8.05;;;15.90;79.20;;;;;;5067651;28;20017;-77
2021/09/03 02:07:51;;;;;;;13.93;8.10;;;15.90;79.20;;;;;;5067775;28;20120;-77
2021/09/03 02:10:16;;;;;;;10.25;7.32;;;15.90;79.30;;;;;;5035409;28;20021;-77
2021/09/03 02:12:42;;;;;;;10.57;7.88;;;15.90;79.30;;;;;;5067510;28;20024;-77
2021/09/03 02:15:09;;;;;;;12.68;8.68;;;15.80;79.30;;;;;;5067179;28;20393;-77
2021/09/03 02:17:35;;;;;;;12.77;8.00;;;15.80;79.30;;;;;;5067283;28;20020;-77
2021/09/03 02:20:00;;;;;;;11.35;8.20;;;15.80;79.40;;;;;;5067050;28;20022;-76
2021/09/03 02:22:26;;;;;;;11.90;7.93;;;15.80;79.40;;;;;;5067177;28;20024;-77
2021/09/03 02:24:51;;;;;;;11.35;8.50;;;15.80;79.40;;;;;;5033922;28;20466;-77
2021/09/03 02:27:17;;;;;;;11.65;8.63;;;15.80;79.40;;;;;;5067555;28;20121;-76
2021/09/03 02:29:43;;;;;;;11.40;7.75;;;15.80;79.50;;;;;;5034915;28;20038;-77
2021/09/03 02:32:08;;;;;;;12.50;7.78;;;15.80;79.50;;;;;;5066893;28;20398;-77
2021/09/03 02:34:34;;;;;;;11.32;8.25;;;15.80;79.50;;;;;;5067436;28;20112;-77
2021/09/03 02:36:59;;;;;;;12.57;8.65;;;15.80;79.50;;;;;;5034065;28;20033;-77
2021/09/03 02:39:25;;;;;;;11.75;7.90;;;15.80;79.50;;;;;;5035912;28;20032;-76
2021/09/03 02:41:51;;;;;;;10.80;7.93;;;15.80;79.60;;;;;;5034403;28;20030;-77
2021/09/03 02:44:17;;;;;;;14.82;8.32;;;15.70;79.60;;;;;;5067734;28;20056;-77
2021/09/03 02:46:42;;;;;;;12.38;8.38;;;15.70;79.70;;;;;;5035873;28;20024;-76
2021/09/03 02:49:08;;;;;;;13.00;8.88;;;15.70;79.60;;;;;;5034361;28;20104;-76
2021/09/03 02:51:33;;;;;;;11.15;7.75;;;15.70;79.60;;;;;;5066630;28;20021;-77
2021/09/03 02:53:59;;;;;;;10.90;7.53;;;15.70;79.70;;;;;;5033175;28;20033;-77
2021/09/03 02:56:25;;;;;;;13.13;8.65;;;15.70;79.80;;;;;;5066311;28;20030;-77
2021/09/03 02:58:50;;;;;;;12.30;8.38;;;15.70;79.80;;;;;;5066396;28;20459;-77
2021/09/03 03:01:16;;;;;;;12.48;8.40;;;15.60;79.80;;;;;;5066921;28;20112;-77
2021/09/03 03:03:42;;;;;;;12.82;8.77;;;15.60;79.80;;;;;;5034311;28;20079;-77
2021/09/03 03:06:07;;;;;;;14.40;9.27;;;15.60;79.80;;;;;;5065810;28;20052;-77
2021/09/03 03:08:33;;;;;;;11.30;8.90;;;15.60;79.90;;;;;;5066142;28;20477;-77
2021/09/03 03:10:59;;;;;;;12.90;8.55;;;15.50;79.90;;;;;;5066411;28;20063;-77
2021/09/03 03:13:27;;;;;;;14.25;9.55;;;15.50;80.00;;;;;;5032893;28;20055;-76
2021/09/03 03:15:53;;;;;;;12.95;8.70;;;15.50;80.00;;;;;;5065883;28;20386;-75
2021/09/03 03:18:19;;;;;;;13.35;9.23;;;15.50;80.00;;;;;;5065907;28;20481;-76
2021/09/03 03:20:46;;;;;;;13.75;9.48;;;15.50;80.00;;;;;;5066005;28;20034;-76
2021/09/03 03:23:12;;;;;;;13.63;9.55;;;15.40;80.00;;;;;;5033951;28;20025;-75
2021/09/03 03:26:18;;;;;;;15.50;10.45;;;15.30;80.10;;;;;;5032664;28;20034;-76
2021/09/03 03:28:44;;;;;;;13.60;9.70;;;15.30;80.30;;;;;;5032261;28;20045;-75
2021/09/03 03:31:10;;;;;;;13.30;9.95;;;15.20;80.30;;;;;;5032351;28;20029;-76
2021/09/03 03:33:35;;;;;;;14.32;10.05;;;15.20;80.40;;;;;;5065481;28;20049;-76
2021/09/03 03:36:01;;;;;;;13.88;9.73;;;15.10;80.50;;;;;;5032317;28;20481;-76
2021/09/03 03:38:26;;;;;;;15.90;10.00;;;15.10;80.70;;;;;;5065530;28;20452;-76
2021/09/03 03:40:52;;;;;;;13.43;9.32;;;15.00;80.60;;;;;;5032363;28;20026;-76
2021/09/03 03:43:17;;;;;;;15.68;9.52;;;15.00;80.70;;;;;;5032140;28;20030;-76
2021/09/03 03:45:43;;;;;;;15.52;10.20;;;15.00;80.80;;;;;;5065498;28;20480;-76
2021/09/03 03:48:09;;;;;;;16.10;10.38;;;15.00;80.90;;;;;;5032248;28;20030;-76
2021/09/03 03:50:34;;;;;;;15.02;10.48;;;15.00;80.90;;;;;;5032120;28;20137;-75
2021/09/03 03:53:00;;;;;;;15.88;10.32;;;14.90;81.00;;;;;;5033487;28;20033;-76
2021/09/03 03:55:25;;;;;;;13.82;10.05;;;14.90;81.10;;;;;;5032168;28;20409;-76
2021/09/03 03:57:51;;;;;;;17.05;10.88;;;14.90;81.10;;;;;;5031916;28;20116;-75
2021/09/03 04:00:17;;;;;;;16.02;9.90;;;14.90;81.10;;;;;;5032133;28;20056;-76
2021/09/03 04:02:42;;;;;;;16.30;10.05;;;14.90;81.20;;;;;;5031965;28;20025;-76
2021/09/03 04:05:08;;;;;;;15.35;10.80;;;14.80;81.30;;;;;;5031992;28;20378;-75
2021/09/03 04:07:34;;;;;;;15.25;10.10;;;14.80;81.30;;;;;;5033187;28;20029;-76
2021/09/03 04:09:59;;;;;;;16.70;10.65;;;14.80;81.30;;;;;;5031843;28;20036;-76
2021/09/03 04:12:25;;;;;;;16.42;10.20;;;14.90;81.30;;;;;;5031764;28;20026;-76
2021/09/03 04:14:51;;;;;;;14.77;10.30;;;14.90;81.30;;;;;;5031877;28;20039;-77
2021/09/03 04:17:16;;;;;;;16.95;10.05;;;14.90;81.30;;;;;;5032253;28;20029;-74
2021/09/03 04:19:42;;;;;;;16.50;10.85;;;14.90;81.30;;;;;;5031936;28;20504;-77
2021/09/03 04:22:08;;;;;;;15.45;10.77;;;14.90;81.40;;;;;;5031749;28;20025;-77
2021/09/03 04:24:33;;;;;;;15.65;11.40;;;14.80;81.40;;;;;;5031730;28;20421;-77
2021/09/03 04:26:59;;;;;;;17.13;10.73;;;14.80;81.40;;;;;;5033215;28;20106;-77
2021/09/03 04:29:26;;;;;;;13.35;10.18;;;14.90;81.50;;;;;;5031496;28;20477;-78
2021/09/03 04:31:52;;;;;;;13.90;10.48;;;14.80;81.40;;;;;;5034389;28;20036;-77
2021/09/03 04:34:18;;;;;;;16.13;10.55;;;14.80;81.50;;;;;;5072822;28;20476;-77
2021/09/03 04:36:43;;;;;;;16.70;10.70;;;14.80;81.40;;;;;;5054763;28;20029;-77
2021/09/03 04:39:09;;;;;;;14.15;10.48;;;14.80;81.40;;;;;;5072851;28;20047;-77
2021/09/03 04:41:35;;;;;;;16.08;11.57;;;14.80;81.50;;;;;;5054763;28;20432;-76
2021/09/03 04:44:00;;;;;;;15.35;10.90;;;14.70;81.50;;;;;;5054719;28;20133;-76
2021/09/03 04:46:26;;;;;;;15.60;11.40;;;14.80;81.70;;;;;;5055138;28;20379;-76
2021/09/03 04:48:52;;;;;;;15.70;11.10;;;14.80;81.70;;;;;;5072634;28;20024;-76
2021/09/03 04:51:17;;;;;;;15.68;10.80;;;14.70;81.90;;;;;;5054586;28;20141;-77
2021/09/03 04:53:43;;;;;;;15.57;10.77;;;14.70;81.70;;;;;;5054631;28;20392;-77
2021/09/03 04:56:09;;;;;;;14.80;10.80;;;14.80;81.70;;;;;;5054484;28;20025;-77
2021/09/03 04:58:34;;;;;;;16.70;10.68;;;14.80;81.70;;;;;;5054655;28;20032;-76
2021/09/03 05:01:00;;;;;;;16.60;11.35;;;14.80;81.70;;;;;;5072476;28;20027;-76
2021/09/03 05:03:26;;;;;;;17.40;11.93;;;14.80;81.70;;;;;;5051513;28;20120;-77
2021/09/03 05:05:52;;;;;;;16.58;11.38;;;14.70;81.70;;;;;;5054497;28;20047;-76
2021/09/03 05:08:17;;;;;;;15.93;11.13;;;14.70;81.80;;;;;;5054424;28;20028;-77
2021/09/03 05:10:43;;;;;;;14.90;10.98;;;14.70;81.80;;;;;;5054574;28;20032;-77
2021/09/03 05:13:08;;;;;;;15.52;10.70;;;14.70;81.80;;;;;;5054519;28;20047;-76
2021/09/03 05:15:38;;;;;;;15.98;11.63;;;14.70;81.90;;;;;;5054490;28;20032;-76
2021/09/03 05:18:04;;;;;;;16.95;11.90;;;14.70;81.90;;;;;;5054342;28;20021;-76
2021/09/03 05:20:30;;;;;;;16.60;11.23;;;14.70;81.90;;;;;;5054515;28;20143;-76
2021/09/03 05:22:56;;;;;;;15.18;11.00;;;14.70;81.90;;;;;;5054341;28;20438;-76
2021/09/03 05:25:23;;;;;;;16.02;10.90;;;14.70;81.90;;;;;;5054303;28;20388;-76
2021/09/03 05:27:48;;;;;;;16.73;11.30;;;14.70;81.90;;;;;;5054656;28;20025;-76
2021/09/03 05:30:14;;;;;;;16.45;11.13;;;14.70;81.90;;;;;;5075988;28;20029;-76
2021/09/03 05:32:40;;;;;;;13.85;10.75;;;14.80;81.90;;;;;;5075775;28;20047;-76
2021/09/03 05:35:07;;;;;;;14.20;10.55;;;14.80;81.90;;;;;;5058063;28;20020;-76
2021/09/03 05:37:33;;;;;;;16.45;10.73;;;14.80;81.90;;;;;;5057794;28;20020;-76
2021/09/03 05:40:00;;;;;;;18.25;11.25;;;14.80;81.80;;;;;;5075843;28;20146;-76
2021/09/03 05:42:26;;;;;;;15.55;10.05;;;14.90;81.80;;;;;;5057776;28;20446;-77
2021/09/03 05:44:52;;;;;;;14.30;10.68;;;14.90;82.40;;;;;;5057674;28;20059;-77
2021/09/03 05:47:18;;;;;;;15.20;10.55;;;14.90;81.80;;;;;;5075639;28;20437;-76
2021/09/03 05:49:43;;;;;;;14.48;10.77;;;15.00;81.70;;;;;;5075737;28;20111;-76
2021/09/03 05:52:09;;;;;;;18.20;10.55;;;15.00;81.70;;;;;;5057673;28;20028;-76
2021/09/03 05:54:34;;;;;;;13.50;10.02;;;15.00;81.70;;;;;;5075578;28;20044;-76
2021/09/03 05:57:00;;;;;;;12.60;9.88;;;15.00;81.70;;;;;;5057596;28;20021;-76
2021/09/03 05:59:26;;;;;;;15.40;10.50;;;15.10;81.70;;;;;;5075389;28;20031;-75
2021/09/03 06:01:51;;;;;;;11.88;9.85;;;15.10;81.60;;;;;;5057504;28;20017;-75
2021/09/03 06:04:17;;;;;;;15.88;10.38;;;15.20;81.70;;;;;;5057410;28;20513;-76
2021/09/03 06:06:42;;;;;;;16.25;10.55;;;15.20;81.60;;;;;;5057400;28;20025;-75
2021/09/03 06:09:08;;;;;;;16.45;10.52;;;15.20;81.50;;;;;;5057285;28;20029;-75
2021/09/03 06:11:34;;;;;;;14.27;10.05;;;15.30;81.50;;;;;;5075177;28;20043;-76
2021/09/03 06:13:59;;;;;;;15.27;10.18;;;15.30;81.50;;;;;;5057281;28;20040;-76
2021/09/03 06:16:25;;;;;;;17.25;10.43;;;15.40;81.40;;;;;;5057035;28;20446;-76
2021/09/03 06:18:51;;;;;;;15.43;10.63;;;15.40;81.40;;;;;;5057223;28;20028;-75
2021/09/03 06:21:17;;;;;;;14.25;9.80;;;15.40;81.30;;;;;;5057539;28;20417;-77
2021/09/03 06:23:43;;;;;;;14.35;9.75;;;15.40;81.30;;;;;;5057239;28;20024;-77
2021/09/03 06:26:09;;;;;;;13.75;9.75;;;15.50;81.30;;;;;;5057050;28;20103;-77
2021/09/03 06:28:35;;;;;;;11.90;9.30;;;15.50;81.30;;;;;;5056954;28;20028;-77
2021/09/03 06:31:01;;;;;;;14.00;10.20;;;15.50;81.20;;;;;;5087676;28;20123;-76
2021/09/03 06:33:27;;;;;;;12.43;9.60;;;15.50;81.20;;;;;;5056845;28;20479;-76
2021/09/03 06:35:53;;;;;;;14.57;9.75;;;15.60;81.30;;;;;;5056896;28;20040;-76
2021/09/03 06:38:18;;;;;;;13.07;9.13;;;15.60;81.20;;;;;;5056775;28;20021;-76
2021/09/03 06:40:44;;;;;;;17.05;10.13;;;15.70;81.20;;;;;;5056193;28;20024;-76
2021/09/03 06:43:10;;;;;;;12.48;9.38;;;15.70;81.10;;;;;;5056975;28;20051;-77
2021/09/03 06:45:35;;;;;;;14.27;9.85;;;15.70;81.10;;;;;;5057393;28;20027;-76
2021/09/03 06:48:02;;;;;;;13.70;9.73;;;15.70;81.00;;;;;;5074853;28;20440;-76
2021/09/03 06:50:28;;;;;;;13.93;10.02;;;15.80;81.00;;;;;;5056544;28;20028;-77
2021/09/03 06:52:54;;;;;;;15.02;10.20;;;15.80;81.00;;;;;;5056580;28;20498;-76
2021/09/03 06:55:20;;;;;;;12.73;9.55;;;15.90;81.00;;;;;;5074507;28;20061;-77
2021/09/03 06:57:45;;;;;;;18.73;9.98;;;15.90;81.00;;;;;;5087300;28;20373;-78
2021/09/03 07:00:12;;;;;;;13.50;9.30;;;15.90;80.90;;;;;;5053966;28;20086;-77
2021/09/03 07:02:38;;;;;;;13.60;9.35;;;16.00;80.90;;;;;;5040905;28;20036;-77
2021/09/03 07:05:05;;;;;;;12.65;8.82;;;16.00;80.90;;;;;;5054512;28;20435;-78
2021/09/03 07:07:32;;;;;;;12.43;9.10;;;16.10;80.90;;;;;;5075448;28;20042;-77
2021/09/03 07:09:58;;;;;;;12.43;8.73;;;16.10;80.80;;;;;;5057417;28;20503;-77
2021/09/03 07:12:24;;;;;;;11.50;8.25;;;16.20;80.80;;;;;;5057073;28;20058;-76
2021/09/03 07:14:51;;;;;;;13.25;9.32;;;16.30;80.80;;;;;;5056751;28;20028;-77
2021/09/03 07:17:17;;;;;;;13.35;8.65;;;16.40;80.80;;;;;;5056908;28;20029;-76
2021/09/03 07:19:43;;;;;;;13.18;8.27;;;16.40;80.60;;;;;;5075014;28;20117;-76
2021/09/03 07:22:09;;;;;;;12.68;8.35;;;16.50;80.50;;;;;;5057743;28;20541;-81
2021/09/03 07:24:35;;;;;;;13.80;9.10;;;16.50;80.40;;;;;;5058016;28;20017;-81
2021/09/03 07:27:01;;;;;;;12.93;9.23;;;16.60;80.40;;;;;;5088704;28;20521;-81
2021/09/03 07:29:27;;;;;;;12.73;8.70;;;16.70;80.40;;;;;;5090133;28;20396;-81
2021/09/03 07:31:53;;;;;;;11.48;8.80;;;16.80;80.30;;;;;;5056300;28;20024;-81
2021/09/03 07:34:20;;;;;;;11.48;8.15;;;16.80;80.20;;;;;;5055838;28;20082;-82
2021/09/03 07:36:46;;;;;;;11.60;7.65;;;16.90;80.10;;;;;;5055885;28;20024;-81
2021/09/03 07:39:40;;;;;;;11.77;8.65;;;17.00;80.40;;;;;;5086637;28;20029;-81
2021/09/03 07:42:06;;;;;;;11.27;7.40;;;17.00;79.90;;;;;;5055662;28;20044;-81
2021/09/03 07:44:31;;;;;;;10.68;7.30;;;17.20;79.90;;;;;;5055869;28;20044;-82
2021/09/03 07:46:57;;;;;;;13.80;8.32;;;17.20;79.70;;;;;;5055518;28;20073;-81
2021/09/03 07:49:24;;;;;;;10.80;7.82;;;17.30;79.70;;;;;;5055962;28;20020;-80
2021/09/03 07:51:50;;;;;;;10.38;7.85;;;17.40;79.60;;;;;;5072562;28;20029;-81
2021/09/03 07:54:15;;;;;;;11.80;8.32;;;17.40;79.50;;;;;;5073627;28;20025;-82
2021/09/03 07:56:41;;;;;;;11.80;8.38;;;17.40;79.40;;;;;;5073746;28;20025;-82
2021/09/03 07:59:07;;;;;;;10.25;7.35;;;17.50;79.40;;;;;;5051242;28;20037;-81
2021/09/03 08:01:32;;;;;;;8.90;6.85;;;17.60;79.40;;;;;;5034392;28;20100;-80
2021/09/03 08:03:58;;;;;;;10.98;6.53;;;17.60;79.20;;;;;;5034767;28;20029;-81
2021/09/03 08:06:23;;;;;;;8.82;6.25;;;17.70;79.20;;;;;;5034452;28;20341;-80
2021/09/03 08:08:49;;;;;;;8.48;6.25;;;17.80;79.10;;;;;;5034357;28;20067;-78
2021/09/03 08:11:15;;;;;;;9.52;6.10;;;17.90;78.90;;;;;;5050888;28;20037;-78
2021/09/03 08:13:40;;;;;;;9.85;6.45;;;18.00;78.80;;;;;;5050906;28;20048;-74
2021/09/03 08:16:06;;;;;;;7.53;5.75;;;18.10;78.70;;;;;;5050854;28;20393;-75
2021/09/03 08:18:31;;;;;;;9.90;5.95;;;18.20;78.60;;;;;;5050853;28;20374;-75
2021/09/03 08:20:58;;;;;;;10.07;5.82;;;18.30;78.40;;;;;;5034125;28;20037;-75
2021/09/03 08:23:23;;;;;;;6.93;5.45;;;18.40;78.30;;;;;;5034078;28;20025;-76
2021/09/03 08:25:49;;;;;;;7.93;5.57;;;18.40;78.10;;;;;;5033971;28;20408;-75
2021/09/03 08:28:14;;;;;;;8.95;5.50;;;18.50;78.00;;;;;;5033967;28;20032;-75
2021/09/03 08:30:40;;;;;;;8.13;5.18;;;18.60;77.80;;;;;;5067127;28;20087;-75
2021/09/03 08:33:05;;;;;;;6.97;5.47;;;18.70;77.60;;;;;;5054720;28;20136;-76
2021/09/03 08:35:31;;;;;;;6.65;5.20;;;18.70;77.40;;;;;;5054814;28;20027;-75
2021/09/03 08:37:57;;;;;;;5.90;4.85;;;18.80;77.20;;;;;;5054791;28;20078;-75
2021/09/03 08:40:22;;;;;;;7.55;4.72;;;18.90;77.10;;;;;;5054897;28;20024;-76
2021/09/03 08:42:48;;;;;;;7.78;5.35;;;18.90;76.90;;;;;;5050225;28;20361;-75
2021/09/03 08:45:17;;;;;;;6.15;5.25;;;18.90;76.60;;;;;;5054575;28;20028;-75
2021/09/03 08:47:44;;;;;;;6.45;5.28;;;19.00;76.50;;;;;;5054531;28;20458;-77
2021/09/03 08:50:11;;;;;;;7.32;5.80;;;19.10;76.40;;;;;;5054668;28;20023;-75
2021/09/03 08:52:45;;;;;;;7.57;4.93;;;19.20;76.30;;;;;;5088207;28;20031;-76
2021/09/03 08:55:11;;;;;;;7.18;5.22;;;19.20;76.10;;;;;;5072629;28;20055;-75
2021/09/03 08:57:37;;;;;;;5.75;4.68;;;19.20;76.00;;;;;;5072465;28;20035;-75
2021/09/03 09:00:15;;;;;;;7.95;4.95;;;19.30;75.90;;;;;;5072486;28;20064;-76
2021/09/03 09:03:01;;;;;;;7.95;5.70;;;19.40;75.70;;;;;;5054701;28;20028;-76
2021/09/03 09:05:52;;;;;;;6.97;4.90;;;19.50;75.30;;;;;;5076608;28;20476;-75
2021/09/03 09:08:19;;;;;;;6.40;4.93;;;19.50;75.20;;;;;;5058503;28;20039;-74
2021/09/03 09:11:05;;;;;;;8.43;5.40;;;19.60;75.00;;;;;;5076368;28;20021;-77
2021/09/03 09:13:34;;;;;;;6.60;4.55;;;19.60;74.80;;;;;;5058331;28;20031;-75
2021/09/03 09:16:09;;;;;;;6.45;4.72;;;19.70;74.80;;;;;;5091848;28;20024;-77
2021/09/03 09:18:54;;;;;;;7.07;4.43;;;19.80;74.60;;;;;;5076355;28;20417;-78
2021/09/03 09:21:23;;;;;;;6.50;4.50;;;19.90;74.30;;;;;;5058312;28;20432;-77
2021/09/03 09:23:51;;;;;;;5.97;4.75;;;20.00;74.20;;;;;;5058217;28;20025;-77
2021/09/03 09:26:19;;;;;;;7.00;4.35;;;20.10;74.10;;;;;;5076304;28;20032;-76
2021/09/03 09:28:46;;;;;;;8.02;5.15;;;20.20;73.80;;;;;;5091825;28;20057;-76
2021/09/03 09:31:11;;;;;;;8.23;5.18;;;20.20;73.60;;;;;;5076058;28;20032;-75
2021/09/03 09:33:44;;;;;;;6.90;5.00;;;20.20;73.40;;;;;;5051316;28;20041;-76
2021/09/03 09:36:12;;;;;;;6.68;4.70;;;20.30;73.30;;;;;;5036083;28;20036;-76
2021/09/03 09:38:39;;;;;;;7.97;5.30;;;20.30;73.20;;;;;;5067936;28;20029;-77
2021/09/03 09:41:09;;;;;;;7.93;5.47;;;20.40;72.90;;;;;;5036111;28;20504;-77
2021/09/03 09:43:38;;;;;;;6.18;5.28;;;20.50;72.20;;;;;;5067776;28;20018;-76
2021/09/03 09:46:23;;;;;;;11.32;6.35;;;20.40;72.20;;;;;;5035887;28;20545;-76
2021/09/03 09:48:49;;;;;;;8.30;5.30;;;20.50;72.00;;;;;;5067847;28;20036;-76
2021/09/03 09:51:19;;;;;;;9.52;4.45;;;20.50;72.00;;;;;;5034387;28;20453;-75
2021/09/03 09:54:03;;;;;;;6.95;4.75;;;20.50;72.00;;;;;;5034241;28;20033;-75
2021/09/03 09:56:31;;;;;;;11.88;5.65;;;20.60;71.80;;;;;;5067707;28;20033;-76
2021/09/03 09:58:59;;;;;;;7.20;5.07;;;20.60;71.40;;;;;;5067855;28;20030;-76
2021/09/03 10:01:25;;;;;;;7.93;5.40;;;20.60;71.20;;;;;;5035692;28;20034;-76
2021/09/03 10:03:53;;;;;;;10.90;5.78;;;20.70;71.30;;;;;;5035519;28;20029;-75
2021/09/03 10:06:21;;;;;;;6.63;4.78;;;20.80;71.20;;;;;;5035677;28;20486;-76
2021/09/03 10:08:49;;;;;;;6.57;4.78;;;20.80;71.10;;;;;;5067384;28;20025;-76
2021/09/03 10:11:16;;;;;;;8.13;5.40;;;20.90;71.00;;;;;;5035383;28;20026;-76
2021/09/03 10:13:42;;;;;;;8.07;5.78;;;20.90;70.80;;;;;;5035150;28;20038;-76
2021/09/03 10:16:08;;;;;;;9.32;5.78;;;21.00;70.60;;;;;;5033033;28;20029;-76
2021/09/03 10:18:34;;;;;;;8.85;5.32;;;21.00;70.60;;;;;;5067191;28;20022;-76
2021/09/03 10:21:01;;;;;;;7.90;5.72;;;21.00;70.50;;;;;;5067498;28;20128;-76
2021/09/03 10:23:50;;;;;;;9.60;5.05;;;21.10;70.40;;;;;;5035297;28;20103;-77
2021/09/03 10:26:19;;;;;;;7.35;4.60;;;21.10;70.30;;;;;;5067264;28;20489;-76
2021/09/03 10:28:45;;;;;;;8.07;5.47;;;21.10;70.20;;;;;;5067183;28;20033;-75
2021/09/03 10:31:11;;;;;;;6.82;4.78;;;21.20;69.90;;;;;;5067224;28;20033;-76
2021/09/03 10:33:38;;;;;;;5.85;4.53;;;21.20;69.80;;;;;;5066850;28;20038;-77
2021/09/03 10:36:05;;;;;;;6.60;5.57;;;21.30;69.90;;;;;;5034987;28;20025;-77
2021/09/03 10:38:32;;;;;;;8.68;5.65;;;21.30;69.70;;;;;;5067096;28;20026;-77
2021/09/03 10:41:00;;;;;;;7.50;5.63;;;21.40;69.40;;;;;;5034916;28;20026;-79
2021/09/03 10:43:43;;;;;;;8.02;5.25;;;21.40;69.30;;;;;;5066957;28;20036;-80
2021/09/03 10:46:11;;;;;;;6.72;5.00;;;21.50;69.10;;;;;;5068277;28;20037;-79
2021/09/03 10:48:36;;;;;;;6.50;4.80;;;21.50;69.20;;;;;;5067731;28;20515;-79
2021/09/03 10:51:04;;;;;;;5.78;5.03;;;21.50;69.10;;;;;;5067713;28;20112;-80
2021/09/03 10:57:14;;;;;;;6.45;4.45;;;21.70;69.00;;;;;;5036278;28;20048;-79
2021/09/03 11:00:15;;;;;;;6.00;4.50;;;21.80;68.80;;;;;;5067400;28;20120;-79
2021/09/03 11:02:41;;;;;;;7.75;4.63;;;21.80;68.50;;;;;;5033933;28;20087;-79
2021/09/03 11:05:13;;;;;;;5.75;4.32;;;21.90;68.50;;;;;;5067341;28;20026;-78
2021/09/03 11:07:44;;;;;;;7.88;5.00;;;22.00;68.20;;;;;;5067422;28;20017;-79
2021/09/03 11:10:21;;;;;;;6.53;4.25;;;22.00;68.00;;;;;;5068762;28;20092;-79
2021/09/03 11:12:51;;;;;;;6.85;4.30;;;22.10;68.00;;;;;;5035121;28;20030;-79
2021/09/03 11:15:17;;;;;;;5.88;4.47;;;22.20;67.90;;;;;;5067765;28;20051;-79
2021/09/03 11:17:43;;;;;;;5.35;4.15;;;22.30;67.70;;;;;;5068859;28;20032;-80
2021/09/03 11:20:10;;;;;;;7.25;4.43;;;22.40;67.50;;;;;;5069060;28;20485;-80
2021/09/03 11:22:37;;;;;;;5.75;3.80;;;22.40;67.20;;;;;;5037484;28;20025;-80
2021/09/03 11:25:06;;;;;;;5.68;4.20;;;22.50;67.00;;;;;;5037994;28;20466;-79
2021/09/03 11:27:32;;;;;;;5.57;3.90;;;22.60;66.60;;;;;;5039920;28;20164;-79
2021/09/03 11:30:03;;;;;;;6.03;4.32;;;22.60;66.60;;;;;;5071845;28;20079;-79
2021/09/03 11:32:36;;;;;;;6.03;4.45;;;22.70;66.60;;;;;;5069186;28;20109;-80
2021/09/03 11:35:05;;;;;;;5.57;4.65;;;22.80;66.50;;;;;;5071274;28;20025;-80
2021/09/03 11:37:47;;;;;;;8.18;4.43;;;22.90;66.40;;;;;;5070746;28;20507;-79
2021/09/03 11:40:30;;;;;;;6.55;4.88;;;23.00;66.30;;;;;;5038005;28;20021;-79
2021/09/03 11:42:57;;;;;;;;;;;23.10;65.90;;;;;;5041757;28;20100;-79
2021/09/03 11:45:31;;;;;;;5.63;4.15;;;23.10;66.10;;;;;;5043861;28;19920;-79
2021/09/03 11:48:02;;;;;;;6.07;4.50;;;23.20;65.80;;;;;;5074490;28;20527;-78
2021/09/03 11:50:48;;;;;;;5.75;3.85;;;23.20;65.60;;;;;;5077649;28;20041;-79
2021/09/03 11:53:23;;;;;;;6.55;3.92;;;23.30;65.40;;;;;;5046869;28;20040;-80
2021/09/03 11:55:50;;;;;;;4.20;3.80;;;23.40;65.30;;;;;;5047628;28;20051;-79
2021/09/03 11:58:21;;;;;;;4.93;4.25;;;23.50;65.00;;;;;;5045645;28;20109;-80
2021/09/03 12:00:49;;;;;;;7.70;4.57;;;23.50;64.80;;;;;;5073680;28;20029;-82
2021/09/03 12:03:22;;;;;;;6.63;4.72;;;23.60;64.70;;;;;;5033578;28;20018;-80
2021/09/03 12:05:55;;;;;;;7.78;4.93;;;23.70;64.40;;;;;;5037345;28;20030;-82
2021/09/03 12:08:26;;;;;;;7.57;5.38;;;23.80;64.00;;;;;;5040500;28;20022;-82
2021/09/03 12:10:56;;;;;;;7.25;4.47;;;23.80;63.90;;;;;;5070656;28;20029;-80
2021/09/03 12:13:32;;;;;;;7.07;5.22;;;23.80;63.80;;;;;;5065903;28;20025;-80
2021/09/03 12:16:20;;;;;;;5.47;4.00;;;23.80;63.70;;;;;;5066253;28;20120;-81
2021/09/03 12:18:51;;;;;;;5.82;3.85;;;23.90;63.60;;;;;;5034680;28;20017;-79
2021/09/03 12:21:25;;;;;;;5.85;3.45;;;23.90;63.60;;;;;;5065520;28;20120;-86
2021/09/03 12:23:54;;;;;;;7.07;3.63;;;24.10;63.40;;;;;;5065150;28;20477;-76
2021/09/03 12:26:26;;;;;;;5.75;4.07;;;24.10;63.10;;;;;;5033089;28;20492;-74
2021/09/03 12:28:55;;;;;;;5.63;4.15;;;24.20;62.90;;;;;;5064842;28;20121;-73
2021/09/03 12:31:33;;;;;;;5.43;3.90;;;24.30;62.90;;;;;;5032753;28;20029;-73
2021/09/03 12:34:01;;;;;;;4.25;3.78;;;24.40;62.80;;;;;;5070511;28;20508;-73
2021/09/03 12:36:28;;;;;;;6.38;3.85;;;24.40;62.50;;;;;;5072847;28;20025;-73
2021/09/03 12:39:00;;;;;;;8.45;5.55;;;24.50;62.40;;;;;;5087587;28;20021;-73
2021/09/03 12:41:30;;;;;;;6.38;4.90;;;24.50;61.60;;;;;;5072933;28;20024;-73
2021/09/03 12:43:59;;;;;;;5.55;4.40;;;24.40;61.50;;;;;;5054715;28;20013;-73